Time;durP1;ratioP1;P1;durP2;ratioP2;P2;SDS_P1;SDS_P2;PMS_P1;PMS_P2;Temp;Humidity;BMP_temperature;BMP_pressure;BME280_temperature;BME280_humidity;BME280_pressure;Samples;Min_cycle;Max_cycle;Signal;HPM_P1;HPM_P2
2022/05/10 00:01:46;;;;;;;1.40;1.37;;;14.80;71.00;14.20;98856.00;;;;5054564;28;20291;-77
2022/05/10 00:04:13;;;;;;;1.63;1.40;;;14.80;70.90;14.10;98854.00;;;;5037048;28;20238;-76
2022/05/10 00:06:46;;;;;;;0.60;0.60;;;14.70;71.00;14.10;98827.00;;;;5054576;28;20188;-76
2022/05/10 00:09:19;;;;;;;1.20;1.10;;;14.70;70.80;13.90;98861.00;;;;5053371;28;20238;-76
2022/05/10 00:11:46;;;;;;;0.90;0.90;;;14.60;71.20;13.80;98855.00;;;;5054398;28;20219;-77
2022/05/10 00:14:13;;;;;;;1.30;1.30;;;14.50;71.40;13.90;98851.00;;;;5054566;28;20251;-75
2022/05/10 00:16:44;;;;;;;2.17;1.90;;;14.50;71.40;13.80;98852.00;;;;5054436;28;20196;-76
2022/05/10 00:19:15;;;;;;;0.80;0.80;;;14.50;71.30;13.80;98847.00;;;;5054310;28;20231;-75
2022/05/10 00:21:43;;;;;;;0.93;0.93;;;14.40;71.10;13.70;98853.00;;;;5054470;28;20196;-76
2022/05/10 00:24:10;;;;;;;2.10;1.63;;;14.40;71.50;13.60;98853.00;;;;5054147;28;20227;-75
2022/05/10 00:26:39;;;;;;;2.73;1.47;;;14.30;72.10;13.60;98853.00;;;;5036623;28;20211;-77
2022/05/10 00:32:07;;;;;;;1.03;1.03;;;14.30;72.50;13.80;98858.00;;;;2993291;26;20241;-75
2022/05/10 00:34:36;;;;;;;1.40;1.40;;;14.30;72.50;13.70;98848.00;;;;4997623;28;20653;-76
2022/05/10 00:37:04;;;;;;;1.30;1.30;;;14.30;73.10;13.60;98853.00;;;;5014572;28;20531;-76
2022/05/10 00:39:33;;;;;;;1.60;1.50;;;14.30;72.40;13.50;98854.00;;;;5014342;28;20201;-76
2022/05/10 00:42:14;;;;;;;1.10;1.10;;;14.10;73.00;13.50;98848.00;;;;4997168;28;20517;-76
2022/05/10 00:44:47;;;;;;;0.90;0.90;;;;;13.50;98854.00;;;;5014282;28;20283;-76
2022/05/10 00:47:26;;;;;;;3.03;1.43;;;14.10;72.60;13.40;98846.00;;;;4997202;28;20212;-78
2022/05/10 00:50:04;;;;;;;2.53;1.07;;;14.10;73.40;13.40;98844.00;;;;4996994;28;20556;-76
2022/05/10 00:52:43;;;;;;;1.40;1.40;;;14.00;73.10;13.30;98847.00;;;;5014359;28;20640;-76
2022/05/10 00:55:16;;;;;;;1.20;1.20;;;14.00;73.40;13.20;98841.00;;;;5014275;28;20229;-77
2022/05/10 00:57:50;;;;;;;1.30;1.30;;;13.90;73.80;13.30;98835.00;;;;5015892;28;20213;-78
2022/05/10 01:00:23;;;;;;;1.47;1.37;;;13.90;74.50;13.40;98841.00;;;;5018733;28;20225;-76
2022/05/10 01:03:04;;;;;;;1.17;1.17;;;14.00;74.00;13.30;98833.00;;;;5014507;28;20205;-75
2022/05/10 01:05:41;;;;;;;0.77;0.77;;;13.90;73.70;13.40;98834.00;;;;5014991;28;20316;-76
2022/05/10 01:08:17;;;;;;;4.77;1.40;;;14.00;73.90;13.40;98825.00;;;;5015300;28;20221;-77
2022/05/10 01:10:53;;;;;;;0.67;0.67;;;14.00;73.80;13.40;98829.00;;;;5015095;28;20229;-78
2022/05/10 01:13:28;;;;;;;1.03;1.03;;;13.90;73.80;13.30;98828.00;;;;5014744;28;20258;-77
2022/05/10 01:16:06;;;;;;;1.10;1.10;;;14.00;73.70;13.40;98825.00;;;;5015101;28;20229;-77
2022/05/10 01:18:34;;;;;;;1.23;1.17;;;13.90;73.50;13.40;98818.00;;;;5014981;28;20181;-78
2022/05/10 01:21:16;;;;;;;1.57;1.47;;;14.00;73.30;13.40;98822.00;;;;5017098;28;20291;-76
2022/05/10 01:24:32;;;;;;;1.13;1.13;;;13.90;72.70;13.20;98815.00;;;;5020815;28;20699;-76
2022/05/10 01:27:35;;;;;;;1.30;1.30;;;13.80;72.90;13.30;98804.00;;;;5020644;28;20203;-76
2022/05/10 01:30:07;;;;;;;1.40;1.40;;;13.80;73.40;13.30;98801.00;;;;5020691;28;20193;-77
2022/05/10 01:35:40;;;;;;;1.00;0.90;;;13.80;73.50;13.00;98797.00;;;;5020751;28;20532;-76
2022/05/10 01:38:37;;;;;;;1.00;1.00;;;13.70;73.10;13.00;98801.00;;;;5003176;28;20227;-76
2022/05/10 01:41:12;;;;;;;1.03;1.03;;;13.60;73.50;13.00;98797.00;;;;5020251;28;20263;-75
2022/05/10 01:43:46;;;;;;;0.90;0.90;;;13.60;73.60;13.00;98796.00;;;;5020354;28;20193;-78
2022/05/10 01:46:19;;;;;;;1.60;1.50;;;13.60;73.90;12.90;98797.00;;;;5019342;28;20260;-76
2022/05/10 01:48:52;;;;;;;1.23;1.13;;;13.50;74.10;12.90;98785.00;;;;5020326;28;20227;-76
2022/05/10 01:51:27;;;;;;;1.73;1.60;;;13.50;74.50;12.90;98792.00;;;;5019979;28;20236;-76
2022/05/10 01:53:54;;;;;;;1.13;1.13;;;13.50;74.40;12.80;98787.00;;;;5002943;28;20605;-76
2022/05/10 01:56:26;;;;;;;1.80;1.70;;;13.40;74.40;12.80;98786.00;;;;5019922;28;20243;-76
2022/05/10 01:58:54;;;;;;;2.00;1.90;;;13.40;74.80;12.90;98780.00;;;;5019868;28;20553;-76
2022/05/10 02:01:31;;;;;;;1.00;1.00;;;13.50;75.20;12.90;98787.00;;;;5019840;28;20237;-76
2022/05/10 02:04:05;;;;;;;2.07;1.93;;;13.50;74.80;12.80;98784.00;;;;5020149;28;20192;-77
2022/05/10 02:06:44;;;;;;;0.90;0.90;;;13.40;74.60;12.90;98783.00;;;;5002426;28;20264;-76
2022/05/10 02:09:20;;;;;;;1.00;1.00;;;13.50;74.80;12.90;98787.00;;;;5019886;28;20220;-76
2022/05/10 02:11:56;;;;;;;1.60;1.50;;;13.50;74.70;12.80;98783.00;;;;5019688;28;20248;-77
2022/05/10 02:14:29;;;;;;;1.07;1.07;;;13.40;74.40;12.80;98780.00;;;;5002675;28;20209;-76
2022/05/10 02:17:07;;;;;;;1.70;1.60;;;13.50;74.50;12.90;98780.00;;;;5002680;28;20261;-77
2022/05/10 02:19:43;;;;;;;1.63;1.53;;;13.40;74.90;12.70;98764.00;;;;5019731;28;20280;-76
2022/05/10 02:22:20;;;;;;;1.17;1.17;;;13.40;74.80;12.70;98780.00;;;;5019720;28;20259;-77
2022/05/10 02:24:55;;;;;;;1.57;1.47;;;13.30;75.30;12.80;98781.00;;;;5019871;28;20196;-76
2022/05/10 02:27:30;;;;;;;1.67;1.57;;;13.40;74.90;12.70;98778.00;;;;5018733;28;20315;-77
2022/05/10 02:30:08;;;;;;;0.90;0.90;;;13.30;74.60;12.70;98775.00;;;;5019699;28;20270;-76
2022/05/10 02:35:26;;;;;;;1.20;1.20;;;13.30;74.50;12.70;98775.00;;;;5016492;28;20217;-76
2022/05/10 02:37:52;;;;;;;1.27;1.13;;;13.30;75.10;12.70;98771.00;;;;5016240;28;20676;-77
2022/05/10 02:40:19;;;;;;;1.47;1.40;;;13.30;75.60;12.70;98768.00;;;;5016293;28;20208;-77
2022/05/10 02:42:48;;;;;;;1.43;1.33;;;13.20;75.50;12.40;98768.00;;;;5016184;28;20232;-76
2022/05/10 02:45:18;;;;;;;1.03;1.03;;;13.10;76.30;12.50;98762.00;;;;5016253;28;20236;-77
2022/05/10 02:47:50;;;;;;;3.07;1.60;;;13.10;77.00;12.50;98759.00;;;;5016287;28;20239;-77
2022/05/10 02:50:27;;;;;;;1.73;1.57;;;13.10;77.00;12.50;98760.00;;;;5016281;28;20217;-77
2022/05/10 02:52:54;;;;;;;1.10;1.10;;;13.10;77.10;12.40;98758.00;;;;5016118;28;20320;-77
2022/05/10 02:55:31;;;;;;;1.00;1.00;;;13.00;77.00;12.40;98765.00;;;;4998834;28;20328;-77
2022/05/10 02:58:05;;;;;;;2.63;1.73;;;13.00;77.60;12.40;98763.00;;;;5015999;28;20228;-78
2022/05/10 03:00:33;;;;;;;0.83;0.83;;;13.00;78.20;12.40;98761.00;;;;5016002;28;20214;-77
2022/05/10 03:03:08;;;;;;;1.67;1.53;;;13.00;79.20;12.50;98762.00;;;;5015793;28;20308;-77
2022/05/10 03:05:34;;;;;;;1.43;1.37;;;13.10;79.60;12.50;98761.00;;;;5016243;28;20539;-76
2022/05/10 03:08:01;;;;;;;1.70;1.60;;;13.10;79.50;12.70;98760.00;;;;4998507;28;20225;-77
2022/05/10 03:10:28;;;;;;;1.13;1.13;;;13.20;80.00;12.60;98756.00;;;;5015814;28;20245;-77
2022/05/10 03:12:54;;;;;;;1.00;1.00;;;13.20;79.70;12.50;98756.00;;;;5015785;28;20316;-77
2022/05/10 03:15:21;;;;;;;1.20;1.20;;;13.10;80.50;12.50;98762.00;;;;5015706;28;20213;-77
2022/05/10 03:17:47;;;;;;;1.47;1.40;;;13.10;81.10;12.50;98763.00;;;;5015546;28;20217;-77
2022/05/10 03:20:14;;;;;;;0.70;0.70;;;13.10;80.60;12.60;98759.00;;;;5015689;28;20285;-78
2022/05/10 03:22:43;;;;;;;0.90;0.90;;;13.10;80.30;12.60;98749.00;;;;5015642;28;20285;-78
2022/05/10 03:25:10;;;;;;;1.40;1.30;;;13.20;80.40;12.50;98739.00;;;;5015525;28;20319;-77
2022/05/10 03:27:37;;;;;;;1.40;1.30;;;13.20;80.70;12.60;98752.00;;;;5015816;28;20217;-77
2022/05/10 03:30:05;;;;;;;1.03;1.03;;;13.20;80.80;12.80;98748.00;;;;4998497;28;20233;-78
2022/05/10 03:32:32;;;;;;;2.27;2.10;;;13.30;80.50;12.80;98762.00;;;;5015305;28;20232;-78
2022/05/10 03:34:59;;;;;;;1.67;1.57;;;13.30;79.40;12.80;98760.00;;;;5015484;28;20229;-78
2022/05/10 03:37:29;;;;;;;1.70;1.60;;;13.40;79.20;12.60;98747.00;;;;4998241;28;20247;-78
2022/05/10 03:39:57;;;;;;;1.03;1.03;;;13.30;79.30;12.70;98759.00;;;;5015648;28;20289;-77
2022/05/10 03:42:25;;;;;;;4.90;1.73;;;13.30;79.40;12.70;98752.00;;;;5015240;28;20201;-77
2022/05/10 03:44:55;;;;;;;1.90;1.80;;;13.30;78.60;12.60;98751.00;;;;5015014;28;20228;-76
2022/05/10 03:47:27;;;;;;;1.40;1.37;;;13.20;78.10;12.60;98758.00;;;;5015176;28;20189;-78
2022/05/10 03:49:54;;;;;;;1.07;1.07;;;13.20;78.10;12.50;98760.00;;;;5015174;28;20723;-78
2022/05/10 03:52:23;;;;;;;1.77;1.67;;;13.20;78.20;12.40;98755.00;;;;5015021;28;20685;-77
2022/05/10 03:54:50;;;;;;;1.47;1.37;;;13.10;78.80;12.50;98756.00;;;;5015022;28;20236;-77
2022/05/10 03:57:17;;;;;;;1.63;1.53;;;;;12.60;98763.00;;;;5015139;28;20587;-77
2022/05/10 03:59:43;;;;;;;1.57;1.47;;;13.10;78.70;12.60;98749.00;;;;5014907;28;20225;-77
2022/05/10 04:02:12;;;;;;;1.90;1.80;;;;;12.60;98745.00;;;;5015030;28;20213;-77
2022/05/10 04:04:39;;;;;;;1.87;1.77;;;13.70;99.90;12.60;98748.00;;;;5014831;28;20283;-76
2022/05/10 04:07:07;;;;;;;2.20;2.00;;;13.20;78.70;12.50;98754.00;;;;5014855;28;20207;-78
2022/05/10 04:09:34;;;;;;;1.17;1.17;;;13.10;79.20;12.50;98743.00;;;;5014758;28;20645;-77
2022/05/10 04:12:01;;;;;;;6.40;1.80;;;13.10;79.20;12.50;98752.00;;;;5014795;28;20373;-77
2022/05/10 04:14:29;;;;;;;2.03;1.93;;;13.10;79.30;12.50;98744.00;;;;5014665;28;20272;-78
2022/05/10 04:16:56;;;;;;;8.93;1.73;;;13.00;79.10;12.60;98747.00;;;;5014908;28;20587;-77
2022/05/10 04:19:22;;;;;;;1.27;1.27;;;13.10;79.40;12.50;98746.00;;;;5014665;28;20359;-77
2022/05/10 04:21:49;;;;;;;1.87;1.77;;;13.10;78.70;12.50;98746.00;;;;5014946;28;20276;-77
2022/05/10 04:24:16;;;;;;;1.00;1.00;;;13.10;78.80;12.50;98743.00;;;;5014702;28;20229;-77
2022/05/10 04:26:43;;;;;;;1.73;1.63;;;13.00;79.20;12.50;98742.00;;;;5014714;28;20198;-78
2022/05/10 04:29:13;;;;;;;1.63;1.53;;;13.10;79.70;12.50;98736.00;;;;5014606;28;20552;-76
2022/05/10 04:31:39;;;;;;;1.60;1.50;;;13.00;79.80;12.60;98745.00;;;;4997550;28;20274;-77
2022/05/10 04:34:06;;;;;;;1.70;1.60;;;13.10;80.50;12.60;98749.00;;;;5014504;28;20280;-76
2022/05/10 04:36:34;;;;;;;1.10;1.10;;;13.10;80.70;12.70;98739.00;;;;5014669;28;20186;-77
2022/05/10 04:39:03;;;;;;;2.23;1.63;;;13.20;80.40;12.70;98748.00;;;;5014382;28;20213;-77
2022/05/10 04:41:35;;;;;;;1.07;1.07;;;13.20;80.00;12.80;98745.00;;;;5014474;28;20205;-77
2022/05/10 04:44:05;;;;;;;1.43;1.40;;;13.40;80.10;12.80;98746.00;;;;5014357;28;20201;-77
2022/05/10 04:46:35;;;;;;;1.33;1.27;;;13.40;80.60;12.90;98749.00;;;;5014406;28;20205;-77
2022/05/10 04:49:03;;;;;;;1.80;1.70;;;13.50;80.60;13.00;98743.00;;;;5014356;28;20217;-77
2022/05/10 04:51:30;;;;;;;2.00;1.90;;;13.50;81.00;13.10;98736.00;;;;5014216;28;20320;-77
2022/05/10 04:53:56;;;;;;;1.70;1.60;;;13.60;81.40;12.90;98742.00;;;;5014239;28;20201;-77
2022/05/10 04:56:23;;;;;;;1.43;1.37;;;13.60;82.90;13.00;98752.00;;;;5013555;28;20193;-77
2022/05/10 04:58:54;;;;;;;1.93;1.80;;;13.60;83.80;13.20;98745.00;;;;5014012;28;20224;-76
2022/05/10 05:01:27;;;;;;;1.30;1.30;;;13.70;83.70;13.20;98747.00;;;;4996779;28;20640;-77
2022/05/10 05:03:56;;;;;;;16.20;1.77;;;13.80;84.00;13.20;98740.00;;;;5014296;28;20255;-77
2022/05/10 05:06:24;;;;;;;2.00;1.90;;;13.80;83.90;13.40;98729.00;;;;5014069;28;20213;-77
2022/05/10 05:08:53;;;;;;;1.03;1.03;;;13.90;83.70;13.40;98747.00;;;;5014179;28;20197;-78
2022/05/10 05:11:20;;;;;;;1.07;1.07;;;14.00;82.90;13.40;98754.00;;;;5013928;28;20224;-77
2022/05/10 05:13:48;;;;;;;1.93;1.83;;;14.00;82.50;13.50;98759.00;;;;5013990;28;20227;-77
2022/05/10 05:16:18;;;;;;;2.37;2.20;;;14.10;81.80;13.70;98763.00;;;;5013923;28;20210;-77
2022/05/10 05:18:45;;;;;;;1.90;1.80;;;14.10;80.60;13.80;98765.00;;;;5013874;28;20593;-76
2022/05/10 05:21:12;;;;;;;1.00;1.00;;;14.20;79.00;13.70;98770.00;;;;4996662;28;20562;-77
2022/05/10 05:23:39;;;;;;;1.20;1.20;;;14.20;77.30;13.80;98776.00;;;;4996558;28;20558;-77
2022/05/10 05:26:06;;;;;;;1.47;1.47;;;14.30;77.80;13.80;98774.00;;;;5013723;28;20299;-77
2022/05/10 05:28:32;;;;;;;2.20;2.00;;;14.30;77.60;13.90;98772.00;;;;5013749;28;20248;-75
2022/05/10 05:31:02;;;;;;;2.47;2.27;;;14.40;78.00;14.00;98774.00;;;;5013590;28;20252;-75
2022/05/10 05:33:29;;;;;;;1.53;1.47;;;14.50;78.00;14.00;98779.00;;;;5014007;28;20225;-75
2022/05/10 05:35:55;;;;;;;1.50;1.43;;;14.50;77.20;14.10;98778.00;;;;5013914;28;20239;-75
2022/05/10 05:38:24;;;;;;;2.30;2.20;;;14.60;77.00;14.10;98759.00;;;;5013819;28;20201;-77
2022/05/10 05:40:51;;;;;;;1.47;1.23;;;14.60;76.10;14.20;98774.00;;;;5013589;28;20225;-75
2022/05/10 05:43:19;;;;;;;2.23;1.83;;;14.70;75.80;14.30;98788.00;;;;5013472;28;20221;-75
2022/05/10 05:45:50;;;;;;;2.43;2.23;;;14.80;75.90;14.30;98778.00;;;;5013574;28;20224;-75
2022/05/10 05:48:17;;;;;;;2.37;2.27;;;14.90;76.20;14.40;98762.00;;;;5013459;28;20197;-75
2022/05/10 05:50:44;;;;;;;0.90;0.90;;;14.90;74.60;14.30;98780.00;;;;4996089;28;20252;-75
2022/05/10 05:53:11;;;;;;;2.20;2.03;;;15.00;74.10;14.40;98772.00;;;;5013517;28;20204;-75
2022/05/10 05:55:41;;;;;;;1.60;1.50;;;15.00;74.80;14.60;98776.00;;;;5013309;28;20303;-75
2022/05/10 05:58:11;;;;;;;2.13;2.03;;;;;14.70;98783.00;;;;4995982;28;20217;-76
2022/05/10 06:00:38;;;;;;;2.20;2.10;;;15.20;73.70;14.80;98780.00;;;;4996118;28;20212;-75
2022/05/10 06:03:05;;;;;;;1.63;1.53;;;15.30;74.70;14.90;98779.00;;;;4996134;28;20300;-76
2022/05/10 06:05:34;;;;;;;2.43;2.33;;;15.40;74.90;15.00;98784.00;;;;5013204;28;20210;-74
2022/05/10 06:08:02;;;;;;;1.93;1.83;;;15.50;75.40;15.10;98781.00;;;;5014315;28;20197;-75
2022/05/10 06:10:28;;;;;;;2.17;1.90;;;15.60;76.10;15.10;98782.00;;;;5016734;28;20193;-77
2022/05/10 06:13:00;;;;;;;1.60;1.50;;;15.60;75.90;15.30;98781.00;;;;4999630;28;20560;-77
2022/05/10 06:15:27;;;;;;;1.40;1.30;;;15.70;76.70;15.30;98779.00;;;;5016606;28;20272;-77
2022/05/10 06:17:57;;;;;;;1.23;1.23;;;;;15.40;98777.00;;;;5016677;28;20274;-76
2022/05/10 06:20:25;;;;;;;1.67;1.57;;;16.00;76.70;15.50;98784.00;;;;5016865;28;20204;-76
2022/05/10 06:22:54;;;;;;;1.43;1.43;;;16.00;77.30;15.60;98780.00;;;;5016472;28;20516;-76
2022/05/10 06:25:23;;;;;;;1.37;1.27;;;16.10;77.80;15.80;98786.00;;;;5016362;28;20205;-77
2022/05/10 06:27:55;;;;;;;2.03;1.93;;;16.20;78.20;15.80;98782.00;;;;5016209;28;20233;-77
2022/05/10 06:30:24;;;;;;;1.60;1.50;;;16.30;77.00;16.00;98775.00;;;;5016575;28;20264;-78
2022/05/10 06:32:54;;;;;;;3.03;2.83;;;16.50;76.50;16.10;98776.00;;;;5016619;28;20268;-80
2022/05/10 06:35:24;;;;;;;5.67;4.00;;;16.50;76.90;16.20;98776.00;;;;5016637;28;20197;-81
2022/05/10 06:40:35;;;;;;;2.23;2.10;;;16.80;76.70;16.50;98782.00;;;;5016469;28;20193;-80
2022/05/10 06:43:02;;;;;;;2.20;2.10;;;16.90;74.10;16.70;98780.00;;;;4999416;28;20300;-82
2022/05/10 06:45:29;;;;;;;0.80;0.80;;;17.10;71.10;16.80;98777.00;;;;5016437;28;20280;-83
2022/05/10 06:47:58;;;;;;;1.30;1.27;;;17.20;70.10;16.90;98776.00;;;;5016943;28;20620;-82
2022/05/10 06:50:26;;;;;;;1.53;1.43;;;17.30;68.40;17.00;98775.00;;;;4998996;28;20555;-79
2022/05/10 06:52:57;;;;;;;1.67;1.60;;;17.50;66.90;17.10;98772.00;;;;5016170;28;20298;-78
2022/05/10 06:55:25;;;;;;;1.30;1.30;;;;;17.20;98766.00;;;;5016335;28;20232;-81
2022/05/10 06:57:54;;;;;;;2.93;2.73;;;17.60;66.20;17.30;98768.00;;;;5016390;28;20292;-81
2022/05/10 07:00:21;;;;;;;0.97;0.97;;;17.80;66.70;17.40;98769.00;;;;5016357;28;20691;-82
2022/05/10 07:02:49;;;;;;;1.23;1.23;;;17.90;65.00;17.50;98757.00;;;;5016313;28;20225;-80
2022/05/10 07:05:19;;;;;;;1.60;1.50;;;17.90;66.50;17.60;98766.00;;;;5016252;28;20224;-83
2022/05/10 07:07:46;;;;;;;2.53;2.33;;;18.10;64.50;17.70;98761.00;;;;4998811;28;20225;-82
2022/05/10 07:10:16;;;;;;;1.03;1.03;;;18.20;64.60;17.80;98761.00;;;;5015952;28;20197;-82
2022/05/10 07:12:44;;;;;;;1.93;1.83;;;18.20;64.90;18.10;98759.00;;;;5015922;28;20256;-82
2022/05/10 07:15:15;;;;;;;1.03;1.03;;;18.40;60.80;18.10;98763.00;;;;5015921;28;20287;-82
2022/05/10 07:17:41;;;;;;;1.63;1.53;;;18.50;60.70;18.20;98753.00;;;;5015868;28;20296;-84
2022/05/10 07:20:15;;;;;;;1.67;1.57;;;18.60;60.90;18.20;98762.00;;;;5015420;28;20225;-83
2022/05/10 07:22:41;;;;;;;1.10;1.10;;;18.60;60.10;18.20;98740.00;;;;5015803;28;20212;-80
2022/05/10 07:25:11;;;;;;;1.23;1.23;;;18.70;59.70;18.40;98757.00;;;;5014938;28;20580;-81
2022/05/10 07:27:39;;;;;;;1.30;1.30;;;18.80;58.00;18.50;98766.00;;;;5015939;28;20198;-82
2022/05/10 07:30:07;;;;;;;3.70;1.60;;;18.80;58.20;18.50;98760.00;;;;5015676;28;20251;-81
2022/05/10 07:32:33;;;;;;;1.47;1.40;;;18.90;57.10;18.60;98759.00;;;;5015643;28;20316;-82
2022/05/10 07:35:03;;;;;;;0.97;0.97;;;19.00;55.40;18.70;98760.00;;;;5015575;28;20221;-83
2022/05/10 07:37:33;;;;;;;1.10;1.10;;;19.10;55.70;18.80;98765.00;;;;5016233;28;20217;-82
2022/05/10 07:40:01;;;;;;;1.37;1.33;;;19.20;55.80;19.00;98767.00;;;;5024723;28;20267;-83
2022/05/10 07:42:27;;;;;;;0.90;0.90;;;19.40;56.50;19.00;98766.00;;;;5015776;28;20313;-81
2022/05/10 07:44:57;;;;;;;1.20;1.10;;;19.40;56.30;19.10;98762.00;;;;5015607;28;20514;-81
2022/05/10 07:47:23;;;;;;;1.30;1.30;;;19.50;56.90;19.10;98758.00;;;;5015623;28;20531;-79
2022/05/10 07:49:52;;;;;;;1.00;1.00;;;19.50;57.40;19.30;98769.00;;;;5015521;28;20261;-80
2022/05/10 07:52:18;;;;;;;1.90;1.57;;;19.70;54.80;19.30;98760.00;;;;5015365;28;20222;-78
2022/05/10 07:54:46;;;;;;;1.63;1.53;;;19.70;54.90;19.40;98763.00;;;;5015208;28;20216;-80
2022/05/10 07:57:12;;;;;;;2.27;2.10;;;19.80;54.50;19.70;98734.00;;;;5015314;28;20194;-82
2022/05/10 07:59:39;;;;;;;0.77;0.77;;;20.00;54.30;19.60;98765.00;;;;5015117;28;20240;-80
2022/05/10 08:02:07;;;;;;;0.97;0.97;;;20.10;54.00;19.60;98766.00;;;;5015408;28;20209;-81
2022/05/10 08:04:34;;;;;;;0.87;0.87;;;;;19.60;98763.00;;;;5016655;28;20653;-83
2022/05/10 08:07:03;;;;;;;1.53;1.43;;;;;19.70;98758.00;;;;5019252;28;20224;-83
2022/05/10 08:09:31;;;;;;;1.40;1.30;;;;;19.90;98758.00;;;;5015086;28;20193;-82
2022/05/10 08:11:59;;;;;;;0.70;0.70;;;;;19.90;98754.00;;;;5014923;28;20229;-82
2022/05/10 08:14:28;;;;;;;1.20;1.20;;;20.40;51.70;19.90;98751.00;;;;4997686;28;20197;-82
2022/05/10 08:16:54;;;;;;;1.47;1.40;;;20.40;52.30;20.10;98749.00;;;;5014812;28;20233;-82
2022/05/10 08:19:23;;;;;;;1.20;1.20;;;20.50;52.60;20.30;98752.00;;;;5014940;28;20208;-83
2022/05/10 08:21:52;;;;;;;0.50;0.50;;;;;20.50;98756.00;;;;5014806;28;20194;-81
2022/05/10 08:24:19;;;;;;;0.80;0.80;;;20.80;49.90;20.50;98749.00;;;;5014944;28;20193;-84
2022/05/10 08:26:45;;;;;;;1.27;1.27;;;20.90;50.40;20.50;98754.00;;;;5015037;28;20295;-83
2022/05/10 08:29:13;;;;;;;2.17;1.43;;;20.90;50.80;20.50;98740.00;;;;5014924;28;20279;-79
2022/05/10 08:31:40;;;;;;;5.10;1.13;;;21.00;50.40;20.70;98749.00;;;;5013775;28;20296;-79
2022/05/10 08:34:07;;;;;;;1.17;1.17;;;21.10;50.30;20.80;98748.00;;;;5014879;28;20232;-80
2022/05/10 08:36:34;;;;;;;0.88;0.88;;;21.20;48.70;20.90;98737.00;;;;5014959;28;20256;-81
2022/05/10 08:39:01;;;;;;;1.80;1.60;;;21.30;48.70;21.00;98746.00;;;;5014716;28;20197;-79
2022/05/10 08:41:40;;;;;;;1.43;1.33;;;21.40;48.70;21.30;98749.00;;;;5014744;28;20219;-80
2022/05/10 08:44:15;;;;;;;1.20;1.20;;;21.50;48.10;21.30;98747.00;;;;5013775;28;20205;-79
2022/05/10 08:46:45;;;;;;;0.82;0.82;;;21.70;46.40;21.40;98746.00;;;;4997152;28;20640;-80
2022/05/10 08:49:19;;;;;;;0.82;0.82;;;21.70;46.30;21.60;98744.00;;;;5014531;28;20235;-79
2022/05/10 08:51:46;;;;;;;1.52;1.42;;;21.90;45.10;21.40;98741.00;;;;5014307;28;20704;-82
2022/05/10 08:54:14;;;;;;;1.35;1.25;;;21.90;44.60;21.50;98742.00;;;;5014497;28;20263;-80
2022/05/10 08:56:46;;;;;;;1.00;1.00;;;21.90;44.30;21.50;98738.00;;;;5014765;28;20255;-83
2022/05/10 08:59:29;;;;;;;0.70;0.70;;;22.00;45.10;21.70;98739.00;;;;5014256;28;20224;-79
2022/05/10 09:02:03;;;;;;;1.20;1.20;;;22.10;44.90;21.90;98740.00;;;;5014292;28;20228;-78
2022/05/10 09:04:46;;;;;;;0.93;0.93;;;22.30;44.40;22.10;98718.00;;;;5014258;28;20217;-79
2022/05/10 09:07:26;;;;;;;1.48;1.38;;;22.40;43.40;22.10;98735.00;;;;5014219;28;20228;-79
2022/05/10 09:10:04;;;;;;;0.90;0.90;;;22.50;43.70;22.40;98733.00;;;;5014219;28;20243;-82
2022/05/10 09:12:43;;;;;;;1.23;1.02;;;22.70;43.30;22.20;98740.00;;;;5014215;28;20220;-77
2022/05/10 09:15:12;;;;;;;0.98;0.98;;;22.70;42.50;22.60;98739.00;;;;5014224;28;20249;-78
2022/05/10 09:17:41;;;;;;;1.17;1.17;;;22.90;40.60;22.70;98736.00;;;;5014262;28;20217;-78
2022/05/10 09:20:13;;;;;;;0.85;0.85;;;22.90;39.60;22.90;98735.00;;;;5014097;28;20193;-82
2022/05/10 09:22:59;;;;;;;0.50;0.50;;;23.20;39.70;22.80;98727.00;;;;5014023;28;20524;-81
2022/05/10 09:25:32;;;;;;;1.02;1.02;;;23.20;38.80;22.80;98728.00;;;;5014232;28;20208;-82
2022/05/10 09:28:03;;;;;;;1.02;1.02;;;23.20;40.30;22.90;98738.00;;;;4996550;28;20229;-80
2022/05/10 09:30:34;;;;;;;0.98;0.98;;;23.30;39.70;23.00;98719.00;;;;5013911;28;20201;-80
2022/05/10 09:36:10;;;;;;;1.20;1.17;;;23.50;38.30;23.30;98717.00;;;;5014107;28;20248;-80
2022/05/10 09:38:46;;;;;;;1.00;1.00;;;23.60;37.70;23.20;98724.00;;;;5013944;28;20212;-80
2022/05/10 09:41:32;;;;;;;1.58;1.35;;;23.70;36.90;23.40;98723.00;;;;5013044;28;20201;-79
2022/05/10 09:44:19;;;;;;;1.05;1.05;;;23.80;38.10;23.90;98723.00;;;;5000039;28;20267;-80
2022/05/10 09:46:46;;;;;;;1.10;1.00;;;24.10;36.60;23.90;98724.00;;;;5017311;28;20632;-79
2022/05/10 09:49:32;;;;;;;0.70;0.70;;;24.10;35.10;24.00;98718.00;;;;5017126;28;20275;-78
2022/05/10 09:52:02;;;;;;;0.75;0.75;;;24.30;35.80;24.10;98716.00;;;;5017089;28;20307;-80
2022/05/10 09:54:36;;;;;;;0.60;0.60;;;24.40;34.70;24.20;98723.00;;;;5016138;28;20235;-82
2022/05/10 09:57:09;;;;;;;0.50;0.50;;;24.60;36.20;24.30;98715.00;;;;5017076;28;20220;-80
2022/05/10 09:59:45;;;;;;;0.88;0.88;;;24.70;36.20;24.50;98716.00;;;;5017139;28;20223;-81
2022/05/10 10:02:30;;;;;;;0.65;0.65;;;24.80;36.50;24.70;98712.00;;;;5016982;28;20287;-81
2022/05/10 10:04:57;;;;;;;1.00;1.00;;;25.00;36.30;24.70;98716.00;;;;4999802;28;20288;-80
2022/05/10 10:07:26;;;;;;;0.75;0.75;;;25.00;35.00;24.60;98705.00;;;;5016862;28;20193;-81
2022/05/10 10:09:56;;;;;;;0.70;0.70;;;24.90;35.40;24.40;98702.00;;;;5016992;28;20286;-81
2022/05/10 10:12:33;;;;;;;0.73;0.73;;;24.90;35.20;24.60;98705.00;;;;5016684;28;20298;-80
2022/05/10 10:15:14;;;;;;;0.93;0.93;;;25.00;34.30;24.80;98707.00;;;;5016899;28;20201;-80
2022/05/10 10:17:51;;;;;;;1.02;1.02;;;25.10;34.30;25.10;98705.00;;;;5016672;28;20649;-80
2022/05/10 10:20:32;;;;;;;1.45;1.02;;;25.40;33.80;25.30;98706.00;;;;4999632;28;20320;-81
2022/05/10 10:23:03;;;;;;;1.58;1.48;;;25.50;33.10;25.40;98689.00;;;;5016730;28;20201;-78
2022/05/10 10:25:40;;;;;;;1.00;1.00;;;25.70;32.90;25.60;98705.00;;;;5016632;28;20399;-80
2022/05/10 10:28:25;;;;;;;1.65;1.23;;;25.80;32.50;25.30;98712.00;;;;5016595;28;20198;-79
2022/05/10 10:30:57;;;;;;;0.82;0.82;;;25.70;30.70;24.90;98703.00;;;;5016652;28;20197;-80
2022/05/10 10:33:34;;;;;;;0.50;0.50;;;25.40;28.70;24.70;98700.00;;;;5016428;28;20193;-79
2022/05/10 10:36:06;;;;;;;5.57;1.77;;;25.20;30.00;24.70;98692.00;;;;5016370;28;20551;-81
2022/05/10 10:38:52;;;;;;;0.70;0.70;;;25.10;32.10;24.80;98703.00;;;;5016378;28;20387;-77
2022/05/10 10:41:35;;;;;;;1.50;1.42;;;25.20;34.80;25.20;98698.00;;;;5016475;28;20637;-79
2022/05/10 10:44:09;;;;;;;1.95;1.60;;;25.40;33.50;25.30;98688.00;;;;5016427;28;20221;-82
2022/05/10 10:46:47;;;;;;;0.50;0.50;;;25.60;32.00;25.50;98699.00;;;;5017645;28;20206;-78
2022/05/10 10:49:21;;;;;;;0.75;0.75;;;25.70;30.20;25.40;98676.00;;;;5016312;28;20706;-80
2022/05/10 10:51:51;;;;;;;0.73;0.73;;;25.80;27.00;25.60;98687.00;;;;5016248;28;20307;-81
2022/05/10 10:54:22;;;;;;;1.55;1.45;;;25.90;27.80;25.90;98684.00;;;;4997937;28;20259;-80
2022/05/10 10:57:19;;;;;;;0.90;0.90;;;26.00;26.70;26.00;98680.00;;;;5016131;28;20212;-80
2022/05/10 11:00:07;;;;;;;0.40;0.40;;;26.20;26.80;26.20;98661.00;;;;5016097;28;20209;-82
2022/05/10 11:02:56;;;;;;;0.93;0.93;;;26.50;27.70;26.50;98669.00;;;;5006883;28;20296;-78
2022/05/10 11:06:20;;;;;;;0.63;0.63;;;26.80;27.80;26.80;98665.00;;;;5016269;28;20193;-82
2022/05/10 11:09:42;;;;;;;0.73;0.73;;;27.00;28.30;27.40;98664.00;;;;4998794;28;20296;-80
2022/05/10 11:12:44;;;;;;;1.67;1.42;;;27.50;29.60;27.40;98656.00;;;;4996958;28;20715;-80
2022/05/10 11:15:36;;;;;;;3.05;1.90;;;27.60;27.40;27.50;98662.00;;;;4998602;28;20196;-79
2022/05/10 11:18:29;;;;;;;1.05;1.05;;;27.70;24.70;27.20;98658.00;;;;5015816;28;20320;-79
2022/05/10 11:21:12;;;;;;;0.90;0.90;;;27.60;23.70;27.20;98658.00;;;;5012478;28;20719;-78
2022/05/10 11:23:55;;;;;;;0.75;0.75;;;27.50;23.60;27.30;98651.00;;;;5015623;28;20252;-80
2022/05/10 11:26:42;;;;;;;1.70;1.08;;;27.60;26.20;27.70;98649.00;;;;5015616;28;20240;-79
2022/05/10 11:29:41;;;;;;;1.35;1.33;;;27.90;25.50;27.60;98655.00;;;;5015603;28;20221;-80
2022/05/10 11:32:24;;;;;;;0.63;0.63;;;27.80;25.70;27.20;98652.00;;;;5015523;28;20248;-81
2022/05/10 11:35:22;;;;;;;0.80;0.80;;;27.60;27.30;26.80;98652.00;;;;5015348;28;20328;-80